Natalie — WDF2101 — position and weather

sailwx.info

Track history (hours):
 
Tides and Currents Weather Stations Pressure Air Temp Water Temp Dewpoint Dewpoint Depression Visibility Wind Speed Wind Dir Waves Ship Positions

Natalie

Owner: EINSELEN, CHRISTIAN, LONG BEACH TOWNSHIP, NJ. More information available from US FCC via Universal Licensing System and Coast Guard Vessel Documentation Center.

Last reported at 2018-Feb-02 13:16 UTC. Time now 2018-Feb-19 18:13 UTC.
Position N 39°46' W 074°07'.
Warning: this ship's position is 17 days out of date.

Length 14 m.

Type: Fishing. MMSI: 367424880.

Date/timePositionNaut miles runAvg speedWind from/ knotsBaromVisibWave heightAir tempDewpointWater temp
2018-Feb-02 13:16N 39°46' W 074°07'0 0.0
2018-Feb-02 10:22N 39°46' W 074°07'0 0.0
2018-Feb-02 09:55N 39°46' W 074°07'0 0.0
2018-Feb-02 09:25N 39°46' W 074°07'0 0.0
2018-Feb-02 07:49N 39°46' W 074°07'0 0.0
2018-Feb-02 00:40N 39°46' W 074°07'0 0.0
2018-Feb-01 23:58N 39°46' W 074°07'0 0.0
2018-Feb-01 18:01N 39°46' W 074°07'0 0.0
2018-Feb-01 17:10N 39°46' W 074°07'0 0.0
2018-Feb-01 08:49N 39°46' W 074°07'0 0.0
2018-Feb-01 07:25N 39°46' W 074°07'0 0.0
2018-Feb-01 04:31N 39°46' W 074°07'0 0.0
2018-Jan-31 23:58N 39°46' W 074°07'0 0.0
2018-Jan-31 20:46N 39°46' W 074°07'0 0.0
2018-Jan-31 20:22N 39°46' W 074°07'0 0.0
2018-Jan-31 17:04N 39°46' W 074°07'0 0.0
2018-Jan-31 16:37N 39°46' W 074°07'0 0.0
2018-Jan-31 11:01N 39°46' W 074°07'0 0.0
2018-Jan-31 10:43N 39°46' W 074°07'0 0.0
2018-Jan-31 10:19N 39°46' W 074°07'0 0.0
2018-Jan-30 22:49N 39°46' W 074°07'0 0.0
2018-Jan-30 22:28N 39°46' W 074°07'0 0.0
2018-Jan-30 16:07N 39°46' W 074°07'0 0.0
2018-Jan-30 11:22N 39°46' W 074°07'0 0.0
2018-Jan-30 07:34N 39°46' W 074°07'0 0.0
2018-Jan-30 06:10N 39°46' W 074°07'0 0.0
2018-Jan-30 05:58N 39°46' W 074°07'0 0.0
2018-Jan-30 05:19N 39°46' W 074°07'0 0.0
2018-Jan-29 23:49N 39°46' W 074°07'0 0.0
2018-Jan-29 12:19N 39°46' W 074°07'0 0.0
2018-Jan-29 04:25N 39°46' W 074°07'0 0.0
2018-Jan-29 03:46N 39°46' W 074°07'0 0.0
2018-Jan-29 03:04N 39°46' W 074°07'0 0.0
2018-Jan-29 02:58N 39°46' W 074°07'0 0.0
2018-Jan-28 19:21N 39°46' W 074°07'2 5.9
2018-Jan-28 18:59N 39°46' W 074°04'2 0.3
2018-Jan-28 11:09N 39°47' W 074°01'1 8.5
2018-Jan-28 10:59N 39°46' W 074°03'3 6.2
2018-Jan-28 10:30N 39°46' W 074°07'0 0.0
2018-Jan-28 08:49N 39°46' W 074°07'0 0.0
2018-Jan-28 08:22N 39°46' W 074°07'0 0.0
2018-Jan-28 04:04N 39°46' W 074°07'0 0.0
2018-Jan-28 03:52N 39°46' W 074°07'0 0.0
2018-Jan-27 22:43N 39°46' W 074°07'0 0.0
2018-Jan-27 22:16N 39°46' W 074°07'0 0.0
2018-Jan-27 21:55N 39°46' W 074°07'0 0.0
2018-Jan-27 21:28N 39°46' W 074°07'0 0.0
2018-Jan-27 20:09N 39°46' W 074°07'0 0.0
2018-Jan-27 18:21N 39°46' W 074°07'0 0.0
2018-Jan-27 15:21N 39°46' W 074°07'0 0.0
2018-Jan-27 14:57N 39°46' W 074°07'0 0.0
2018-Jan-27 14:27N 39°46' W 074°07'0 0.0
2018-Jan-27 14:00N 39°46' W 074°07'0 0.0
2018-Jan-27 13:03N 39°46' W 074°07'0 0.0
2018-Jan-27 12:51N 39°46' W 074°07'0 0.0
2018-Jan-27 12:15N 39°46' W 074°07'0 0.0
2018-Jan-27 11:57N 39°46' W 074°07'0 0.0
2018-Jan-27 11:15N 39°46' W 074°07'0 0.0
2018-Jan-27 09:27N 39°46' W 074°07'0 0.0
2018-Jan-27 07:03N 39°46' W 074°07'0 0.0
2018-Jan-27 06:54N 39°46' W 074°07'0 0.0
2018-Jan-27 06:21N 39°46' W 074°07'0 0.0
2018-Jan-27 05:39N 39°46' W 074°07'0 0.0
2018-Jan-27 04:39N 39°46' W 074°07'0 0.0
2018-Jan-27 03:33N 39°46' W 074°07'0 0.0
2018-Jan-27 03:21N 39°46' W 074°07'0 0.0
2018-Jan-27 02:51N 39°46' W 074°07'0 0.0
2018-Jan-27 02:24N 39°46' W 074°07'0 0.0
2018-Jan-26 21:48N 39°46' W 074°07'0 0.0
2018-Jan-26 21:30N 39°46' W 074°07'0 0.0
2018-Jan-26 20:57N 39°46' W 074°07'0 0.0
2018-Jan-26 19:51N 39°46' W 074°07'0 0.0
2018-Jan-26 18:08N 39°46' W 074°07'1 4.6
2018-Jan-26 17:59N 39°46' W 074°06'6 0.6
2018-Jan-26 07:22N 39°47' W 073°58'4 8.5
2018-Jan-26 06:57N 39°46' W 074°02'3 7.0
2018-Jan-26 06:29N 39°46' W 074°07'0 0.1
2018-Jan-26 05:02N 39°46' W 074°07'0 0.0
2018-Jan-24 11:45N 39°46' W 074°07'0 0.0
2018-Jan-24 10:21N 39°46' W 074°07'0 0.0
2018-Jan-24 09:36N 39°46' W 074°07'0 0.0
2018-Jan-24 09:09N 39°46' W 074°07'0 0.0
2018-Jan-24 08:57N 39°46' W 074°07'0 0.0
2018-Jan-24 06:21N 39°46' W 074°07'0 0.0
2018-Jan-24 05:57N 39°46' W 074°07'0 0.0
2018-Jan-24 04:39N 39°46' W 074°07'0 0.0
2018-Jan-24 01:57N 39°46' W 074°07'0 0.0
2018-Jan-24 00:54N 39°46' W 074°07'0 0.0
2018-Jan-24 00:21N 39°46' W 074°07'0 0.0
2018-Jan-23 22:15N 39°46' W 074°07'0 0.0
2018-Jan-23 21:42N 39°46' W 074°07'0 0.0
2018-Jan-23 21:27N 39°46' W 074°07'0 0.0
2018-Jan-23 18:51N 39°46' W 074°07'0 0.0
2018-Jan-23 18:09N 39°46' W 074°07'  
Track history (hours):
 
Tides and Currents Weather Stations Pressure Air Temp Water Temp Dewpoint Dewpoint Depression Visibility Wind Speed Wind Dir Waves Ship Positions

Natalie

Owner: EINSELEN, CHRISTIAN, LONG BEACH TOWNSHIP, NJ. More information available from US FCC via Universal Licensing System and Coast Guard Vessel Documentation Center.

Last reported at 2018-Feb-02 13:16 UTC. Time now 2018-Feb-19 18:13 UTC.
Position N 39°46' W 074°07'.
Warning: this ship's position is 17 days out of date.

Length 14 m.

Type: Fishing. MMSI: 367424880.

Date/timePositionNaut miles runAvg speedWind from/ knotsBaromVisibWave heightAir tempDewpointWater temp
2018-Feb-02 13:16N 39°46' W 074°07'0 0.0
2018-Feb-02 10:22N 39°46' W 074°07'0 0.0
2018-Feb-02 09:55N 39°46' W 074°07'0 0.0
2018-Feb-02 09:25N 39°46' W 074°07'0 0.0
2018-Feb-02 07:49N 39°46' W 074°07'0 0.0
2018-Feb-02 00:40N 39°46' W 074°07'0 0.0
2018-Feb-01 23:58N 39°46' W 074°07'0 0.0
2018-Feb-01 18:01N 39°46' W 074°07'0 0.0
2018-Feb-01 17:10N 39°46' W 074°07'0 0.0
2018-Feb-01 08:49N 39°46' W 074°07'0 0.0
2018-Feb-01 07:25N 39°46' W 074°07'0 0.0
2018-Feb-01 04:31N 39°46' W 074°07'0 0.0
2018-Jan-31 23:58N 39°46' W 074°07'0 0.0
2018-Jan-31 20:46N 39°46' W 074°07'0 0.0
2018-Jan-31 20:22N 39°46' W 074°07'0 0.0
2018-Jan-31 17:04N 39°46' W 074°07'0 0.0
2018-Jan-31 16:37N 39°46' W 074°07'0 0.0
2018-Jan-31 11:01N 39°46' W 074°07'0 0.0
2018-Jan-31 10:43N 39°46' W 074°07'0 0.0
2018-Jan-31 10:19N 39°46' W 074°07'0 0.0
2018-Jan-30 22:49N 39°46' W 074°07'0 0.0
2018-Jan-30 22:28N 39°46' W 074°07'0 0.0
2018-Jan-30 16:07N 39°46' W 074°07'0 0.0
2018-Jan-30 11:22N 39°46' W 074°07'0 0.0
2018-Jan-30 07:34N 39°46' W 074°07'0 0.0
2018-Jan-30 06:10N 39°46' W 074°07'0 0.0
2018-Jan-30 05:58N 39°46' W 074°07'0 0.0
2018-Jan-30 05:19N 39°46' W 074°07'0 0.0
2018-Jan-29 23:49N 39°46' W 074°07'0 0.0
2018-Jan-29 12:19N 39°46' W 074°07'0 0.0
2018-Jan-29 04:25N 39°46' W 074°07'0 0.0
2018-Jan-29 03:46N 39°46' W 074°07'0 0.0
2018-Jan-29 03:04N 39°46' W 074°07'0 0.0
2018-Jan-29 02:58N 39°46' W 074°07'0 0.0
2018-Jan-28 19:21N 39°46' W 074°07'2 5.9
2018-Jan-28 18:59N 39°46' W 074°04'2 0.3
2018-Jan-28 11:09N 39°47' W 074°01'1 8.5
2018-Jan-28 10:59N 39°46' W 074°03'3 6.2
2018-Jan-28 10:30N 39°46' W 074°07'0 0.0
2018-Jan-28 08:49N 39°46' W 074°07'0 0.0
2018-Jan-28 08:22N 39°46' W 074°07'0 0.0
2018-Jan-28 04:04N 39°46' W 074°07'0 0.0
2018-Jan-28 03:52N 39°46' W 074°07'0 0.0
2018-Jan-27 22:43N 39°46' W 074°07'0 0.0
2018-Jan-27 22:16N 39°46' W 074°07'0 0.0
2018-Jan-27 21:55N 39°46' W 074°07'0 0.0
2018-Jan-27 21:28N 39°46' W 074°07'0 0.0
2018-Jan-27 20:09N 39°46' W 074°07'0 0.0
2018-Jan-27 18:21N 39°46' W 074°07'0 0.0
2018-Jan-27 15:21N 39°46' W 074°07'0 0.0
2018-Jan-27 14:57N 39°46' W 074°07'0 0.0
2018-Jan-27 14:27N 39°46' W 074°07'0 0.0
2018-Jan-27 14:00N 39°46' W 074°07'0 0.0
2018-Jan-27 13:03N 39°46' W 074°07'0 0.0
2018-Jan-27 12:51N 39°46' W 074°07'0 0.0
2018-Jan-27 12:15N 39°46' W 074°07'0 0.0
2018-Jan-27 11:57N 39°46' W 074°07'0 0.0
2018-Jan-27 11:15N 39°46' W 074°07'0 0.0
2018-Jan-27 09:27N 39°46' W 074°07'0 0.0
2018-Jan-27 07:03N 39°46' W 074°07'0 0.0
2018-Jan-27 06:54N 39°46' W 074°07'0 0.0
2018-Jan-27 06:21N 39°46' W 074°07'0 0.0
2018-Jan-27 05:39N 39°46' W 074°07'0 0.0
2018-Jan-27 04:39N 39°46' W 074°07'0 0.0
2018-Jan-27 03:33N 39°46' W 074°07'0 0.0
2018-Jan-27 03:21N 39°46' W 074°07'0 0.0
2018-Jan-27 02:51N 39°46' W 074°07'0 0.0
2018-Jan-27 02:24N 39°46' W 074°07'0 0.0
2018-Jan-26 21:48N 39°46' W 074°07'0 0.0
2018-Jan-26 21:30N 39°46' W 074°07'0 0.0
2018-Jan-26 20:57N 39°46' W 074°07'0 0.0
2018-Jan-26 19:51N 39°46' W 074°07'0 0.0
2018-Jan-26 18:08N 39°46' W 074°07'1 4.6
2018-Jan-26 17:59N 39°46' W 074°06'6 0.6
2018-Jan-26 07:22N 39°47' W 073°58'4 8.5
2018-Jan-26 06:57N 39°46' W 074°02'3 7.0
2018-Jan-26 06:29N 39°46' W 074°07'0 0.1
2018-Jan-26 05:02N 39°46' W 074°07'0 0.0
2018-Jan-24 11:45N 39°46' W 074°07'0 0.0
2018-Jan-24 10:21N 39°46' W 074°07'0 0.0
2018-Jan-24 09:36N 39°46' W 074°07'0 0.0
2018-Jan-24 09:09N 39°46' W 074°07'0 0.0
2018-Jan-24 08:57N 39°46' W 074°07'0 0.0
2018-Jan-24 06:21N 39°46' W 074°07'0 0.0
2018-Jan-24 05:57N 39°46' W 074°07'0 0.0
2018-Jan-24 04:39N 39°46' W 074°07'0 0.0
2018-Jan-24 01:57N 39°46' W 074°07'0 0.0
2018-Jan-24 00:54N 39°46' W 074°07'0 0.0
2018-Jan-24 00:21N 39°46' W 074°07'0 0.0
2018-Jan-23 22:15N 39°46' W 074°07'0 0.0
2018-Jan-23 21:42N 39°46' W 074°07'0 0.0
2018-Jan-23 21:27N 39°46' W 074°07'0 0.0
2018-Jan-23 18:51N 39°46' W 074°07'0 0.0
2018-Jan-23 18:09N 39°46' W 074°07'  

Dump ship's entire track history